createdAt,value
2022-08-08T00:01:08.266Z,15.10
2022-08-08T00:03:49.121Z,15.10
2022-08-08T00:06:34.829Z,15.10
2022-08-08T00:09:15.751Z,15.20
2022-08-08T00:12:07.118Z,15.20
2022-08-08T00:14:59.553Z,15.20
2022-08-08T00:17:58.332Z,15.20
2022-08-08T00:20:37.236Z,15.10
2022-08-08T00:23:08.985Z,15.20
2022-08-08T00:25:46.746Z,15.20
2022-08-08T00:28:35.016Z,15.20
2022-08-08T00:32:20.945Z,15.10
2022-08-08T00:34:35.109Z,15.00
2022-08-08T00:37:45.079Z,14.90
2022-08-08T00:41:12.595Z,14.90
2022-08-08T00:43:46.074Z,14.90
2022-08-08T00:46:59.565Z,14.90
2022-08-08T00:50:07.546Z,14.80
2022-08-08T00:52:51.294Z,14.80
2022-08-08T00:56:04.660Z,14.90
2022-08-08T00:59:14.610Z,15.00
2022-08-08T01:02:02.065Z,14.90
2022-08-08T01:05:02.109Z,14.90
2022-08-08T01:08:01.423Z,15.00
2022-08-08T01:11:08.331Z,15.00
2022-08-08T01:14:16.304Z,14.90
2022-08-08T01:17:35.004Z,14.90
2022-08-08T01:20:34.996Z,14.80
2022-08-08T01:23:55.681Z,14.80
2022-08-08T01:26:48.968Z,14.70
2022-08-08T01:29:59.260Z,14.70
2022-08-08T01:33:16.231Z,14.70
2022-08-08T01:36:38.430Z,14.70
2022-08-08T01:39:35.931Z,14.60
2022-08-08T01:42:17.091Z,14.50
2022-08-08T01:45:00.314Z,14.40
2022-08-08T01:48:14.500Z,14.20
2022-08-08T01:50:53.593Z,14.10
2022-08-08T01:55:14.870Z,14.10
2022-08-08T01:56:50.772Z,14.10
2022-08-08T02:00:03.041Z,14.20
2022-08-08T02:02:42.815Z,14.20
2022-08-08T02:05:33.940Z,14.30
2022-08-08T02:08:24.761Z,14.30
2022-08-08T02:11:23.131Z,14.30
2022-08-08T02:14:01.171Z,14.00
2022-08-08T02:16:42.780Z,14.00
2022-08-08T02:19:56.942Z,13.90
2022-08-08T02:22:28.434Z,14.00
2022-08-08T02:25:11.652Z,14.00
2022-08-08T02:27:45.247Z,14.00
2022-08-08T02:30:21.050Z,13.90
2022-08-08T02:34:00.667Z,13.80
2022-08-08T02:36:32.079Z,13.80
2022-08-08T02:39:42.142Z,13.80
2022-08-08T02:42:36.160Z,13.90
2022-08-08T02:45:51.443Z,13.90
2022-08-08T02:48:50.903Z,13.90
2022-08-08T02:51:56.965Z,13.80
2022-08-08T02:55:05.539Z,13.80
2022-08-08T02:58:10.077Z,13.80
2022-08-08T03:01:08.829Z,13.70
2022-08-08T03:05:04.103Z,13.60
2022-08-08T03:07:41.729Z,13.60
2022-08-08T03:10:53.665Z,13.50
2022-08-08T03:15:57.989Z,13.60
2022-08-08T03:16:48.571Z,13.60
2022-08-08T03:19:29.804Z,13.60
2022-08-08T03:21:59.851Z,13.60
2022-08-08T03:24:30.135Z,13.50
2022-08-08T03:27:09.070Z,13.60
2022-08-08T03:29:56.354Z,13.60
2022-08-08T03:32:53.437Z,13.60
2022-08-08T03:35:33.308Z,13.60
2022-08-08T03:38:54.276Z,13.50
2022-08-08T03:40:54.668Z,13.40
2022-08-08T03:43:23.414Z,13.30
2022-08-08T03:46:07.105Z,13.40
2022-08-08T03:49:55.008Z,13.40
2022-08-08T03:51:50.411Z,13.20
2022-08-08T03:54:41.459Z,13.20
2022-08-08T03:58:30.522Z,13.10
2022-08-08T04:00:11.124Z,13.20
2022-08-08T04:02:47.243Z,13.30
2022-08-08T04:05:19.481Z,13.40
2022-08-08T04:07:58.444Z,13.40
2022-08-08T04:10:31.724Z,13.30
2022-08-08T04:13:08.295Z,13.30
2022-08-08T04:15:55.222Z,13.30
2022-08-08T04:18:41.950Z,13.30
2022-08-08T04:21:22.916Z,13.30
2022-08-08T04:24:11.505Z,13.30
2022-08-08T04:26:57.681Z,13.30
2022-08-08T04:29:33.049Z,13.40
2022-08-08T04:32:02.323Z,13.30
2022-08-08T04:34:32.455Z,13.20
2022-08-08T04:37:18.409Z,13.30
2022-08-08T04:40:03.167Z,13.20
2022-08-08T04:42:36.952Z,13.20
2022-08-08T04:45:08.777Z,13.10
2022-08-08T04:47:46.225Z,13.20
2022-08-08T04:50:24.646Z,13.30
2022-08-08T04:52:58.733Z,13.50
2022-08-08T04:55:47.840Z,13.60
2022-08-08T04:58:22.579Z,13.60
2022-08-08T05:00:52.699Z,13.70
2022-08-08T05:04:08.982Z,13.80
2022-08-08T05:06:12.557Z,13.90
2022-08-08T05:08:42.443Z,14.00
2022-08-08T05:11:18.559Z,14.00
2022-08-08T05:13:57.901Z,14.00
2022-08-08T05:16:51.431Z,14.00
2022-08-08T05:20:12.118Z,14.00
2022-08-08T05:22:10.587Z,14.00
2022-08-08T05:24:40.255Z,14.10
2022-08-08T05:27:09.088Z,14.20
2022-08-08T05:29:37.760Z,14.20
2022-08-08T05:32:12.783Z,14.40
2022-08-08T05:34:44.070Z,14.40
2022-08-08T05:37:16.992Z,14.40
2022-08-08T05:39:52.783Z,14.50
2022-08-08T05:42:25.698Z,14.50
2022-08-08T05:44:55.133Z,14.60
2022-08-08T05:47:52.820Z,14.60
2022-08-08T05:50:20.439Z,14.60
2022-08-08T05:52:50.312Z,14.70
2022-08-08T05:55:19.088Z,14.70
2022-08-08T05:58:03.949Z,14.80
2022-08-08T06:00:36.324Z,14.90
2022-08-08T06:03:23.627Z,14.90
2022-08-08T06:05:59.274Z,15.00
2022-08-08T06:08:33.550Z,15.10
2022-08-08T06:11:05.992Z,15.20
2022-08-08T06:13:35.726Z,15.30
2022-08-08T06:16:13.292Z,15.40
2022-08-08T06:18:43.741Z,15.50
2022-08-08T06:21:33.304Z,15.60
2022-08-08T06:24:05.055Z,15.70
2022-08-08T06:26:52.402Z,15.80
2022-08-08T06:30:00.536Z,15.90
2022-08-08T06:32:17.556Z,16.00
2022-08-08T06:35:12.441Z,16.10
2022-08-08T06:37:46.606Z,16.20
2022-08-08T06:40:20.981Z,16.20
2022-08-08T06:42:58.051Z,16.30
2022-08-08T06:45:28.399Z,16.40
2022-08-08T06:48:01.747Z,16.50
2022-08-08T06:50:33.391Z,16.60
2022-08-08T06:53:09.787Z,16.60
2022-08-08T06:55:43.713Z,16.70
2022-08-08T06:58:18.714Z,16.90
2022-08-08T07:00:51.641Z,16.90
2022-08-08T07:04:35.757Z,17.00
2022-08-08T07:06:26.933Z,17.10
2022-08-08T07:08:59.476Z,17.20
2022-08-08T07:11:50.846Z,17.30
2022-08-08T07:14:27.381Z,17.40
2022-08-08T07:17:09.468Z,17.50
2022-08-08T07:19:51.408Z,17.50
2022-08-08T07:22:38.930Z,17.60
2022-08-08T07:25:10.968Z,17.60
2022-08-08T07:28:02.245Z,17.70
2022-08-08T07:30:36.159Z,17.80
2022-08-08T07:33:05.701Z,17.90
2022-08-08T07:35:39.730Z,18.00
2022-08-08T07:38:20.710Z,18.10
2022-08-08T07:40:58.837Z,18.10
2022-08-08T07:43:36.801Z,18.10
2022-08-08T07:46:29.173Z,18.20
2022-08-08T07:48:55.856Z,18.30
2022-08-08T07:51:45.497Z,18.40
2022-08-08T07:54:27.306Z,18.40
2022-08-08T07:57:08.862Z,18.50
2022-08-08T07:59:51.197Z,18.60
2022-08-08T08:02:35.870Z,18.60
2022-08-08T08:05:15.206Z,18.60
2022-08-08T08:07:45.908Z,18.70
2022-08-08T08:10:30.708Z,18.80
2022-08-08T08:13:25.731Z,18.90
2022-08-08T08:16:16.928Z,19.00
2022-08-08T08:18:51.721Z,19.20
2022-08-08T08:21:44.652Z,19.30
2022-08-08T08:24:10.865Z,19.40
2022-08-08T08:26:47.008Z,19.40
2022-08-08T08:29:24.158Z,19.50
2022-08-08T08:31:58.261Z,19.60
2022-08-08T08:34:32.307Z,19.80
2022-08-08T08:37:07.959Z,19.90
2022-08-08T08:39:59.382Z,20.10
2022-08-08T08:42:31.902Z,20.20
2022-08-08T08:45:20.882Z,20.20
2022-08-08T08:47:54.249Z,20.40
2022-08-08T08:50:32.620Z,20.60
2022-08-08T08:53:54.186Z,20.80
2022-08-08T08:55:56.004Z,20.90
2022-08-08T08:58:37.615Z,20.80
2022-08-08T09:01:09.923Z,20.90
2022-08-08T09:03:46.854Z,21.00
2022-08-08T09:06:28.475Z,21.40
2022-08-08T09:09:05.366Z,21.80
2022-08-08T09:11:47.441Z,22.10
2022-08-08T09:14:28.069Z,22.30
2022-08-08T09:16:57.266Z,22.50
2022-08-08T09:22:00.316Z,22.40
2022-08-08T09:22:26.024Z,22.00
2022-08-08T09:24:58.646Z,21.60
2022-08-08T09:27:57.607Z,21.50
2022-08-08T09:30:20.000Z,21.60
2022-08-08T09:33:12.443Z,21.80
2022-08-08T09:35:49.596Z,21.60
2022-08-08T09:38:32.926Z,21.40
2022-08-08T09:41:07.168Z,21.30
2022-08-08T09:44:05.211Z,21.10
2022-08-08T09:46:40.107Z,21.30
2022-08-08T09:49:41.233Z,21.90
2022-08-08T09:52:08.675Z,22.20
2022-08-08T09:54:45.998Z,22.40
2022-08-08T09:57:25.301Z,22.40
2022-08-08T10:02:48.849Z,22.20
2022-08-08T10:05:22.937Z,22.30
2022-08-08T10:07:59.765Z,22.20
2022-08-08T10:10:32.385Z,22.50
2022-08-08T10:13:06.213Z,22.50
2022-08-08T10:16:00.852Z,22.80
2022-08-08T10:18:33.552Z,22.90
2022-08-08T10:21:23.053Z,22.60
2022-08-08T10:24:03.829Z,22.50
2022-08-08T10:26:52.074Z,22.30
2022-08-08T10:29:57.141Z,22.40
2022-08-08T10:32:48.225Z,22.30
2022-08-08T10:36:08.997Z,22.20
2022-08-08T10:38:16.749Z,22.20
2022-08-08T10:40:51.378Z,22.30
2022-08-08T10:43:20.945Z,22.60
2022-08-08T10:45:56.948Z,23.00
2022-08-08T10:48:38.767Z,23.70
2022-08-08T10:51:26.269Z,24.20
2022-08-08T10:53:58.316Z,23.70
2022-08-08T10:56:34.764Z,23.50
2022-08-08T10:59:08.178Z,23.40
2022-08-08T11:01:39.335Z,23.10
2022-08-08T11:04:11.754Z,23.00
2022-08-08T11:06:49.370Z,23.20
2022-08-08T11:09:21.243Z,23.00
2022-08-08T11:12:04.829Z,22.90
2022-08-08T11:14:51.404Z,22.90
2022-08-08T11:17:57.886Z,23.10
2022-08-08T11:20:14.756Z,23.40
2022-08-08T11:22:52.090Z,24.10
2022-08-08T11:25:52.169Z,24.20
2022-08-08T11:28:18.567Z,24.20
2022-08-08T11:30:50.041Z,24.60
2022-08-08T11:33:52.726Z,24.70
2022-08-08T11:36:15.719Z,25.00
2022-08-08T11:38:54.726Z,25.00
2022-08-08T11:41:27.753Z,25.20
2022-08-08T11:44:01.977Z,25.30
2022-08-08T11:46:34.462Z,25.30
2022-08-08T11:49:05.295Z,25.30
2022-08-08T11:51:40.409Z,25.60
2022-08-08T11:54:33.249Z,25.90
2022-08-08T11:57:27.196Z,26.00
2022-08-08T12:00:05.866Z,25.80
2022-08-08T12:02:47.176Z,25.70
2022-08-08T12:05:16.335Z,25.40
2022-08-08T12:07:46.876Z,25.10
2022-08-08T12:10:22.856Z,24.90
2022-08-08T12:13:01.204Z,24.90
2022-08-08T12:15:41.718Z,25.30
2022-08-08T12:18:18.158Z,25.50
2022-08-08T12:20:53.173Z,25.40
2022-08-08T12:23:40.714Z,25.20
2022-08-08T12:26:28.625Z,25.10
2022-08-08T12:29:36.273Z,25.10
2022-08-08T12:32:19.626Z,24.80
2022-08-08T12:34:53.714Z,24.90
2022-08-08T12:37:41.304Z,25.50
2022-08-08T12:40:23.097Z,26.20
2022-08-08T12:42:55.667Z,26.70
2022-08-08T12:45:58.995Z,26.70
2022-08-08T12:48:37.708Z,26.30
2022-08-08T12:51:11.729Z,26.10
2022-08-08T12:53:58.837Z,25.70
2022-08-08T12:56:34.972Z,25.60
2022-08-08T12:59:16.562Z,25.60
2022-08-08T13:01:53.182Z,25.40
2022-08-08T13:04:25.719Z,25.40
2022-08-08T13:06:56.735Z,25.60
2022-08-08T13:09:57.464Z,26.10
2022-08-08T13:12:29.588Z,26.60
2022-08-08T13:15:03.463Z,26.70
2022-08-08T13:17:54.141Z,26.20
2022-08-08T13:20:26.003Z,25.90
2022-08-08T13:23:41.182Z,25.60
2022-08-08T13:25:50.117Z,25.40
2022-08-08T13:28:32.465Z,25.50
2022-08-08T13:31:04.489Z,25.60
2022-08-08T13:33:41.982Z,25.80
2022-08-08T13:36:12.303Z,25.60
2022-08-08T13:38:42.948Z,25.60
2022-08-08T13:41:16.605Z,25.60
2022-08-08T13:43:47.538Z,25.60
2022-08-08T13:46:26.807Z,25.60
2022-08-08T13:49:11.905Z,25.60
2022-08-08T13:51:57.757Z,25.50
2022-08-08T13:54:29.455Z,25.50
2022-08-08T13:57:16.093Z,25.50
2022-08-08T13:59:48.705Z,25.30
2022-08-08T14:02:22.458Z,25.40
2022-08-08T14:05:09.301Z,25.40
2022-08-08T14:07:52.551Z,25.40
2022-08-08T14:10:33.779Z,25.30
2022-08-08T14:13:21.065Z,25.20
2022-08-08T14:16:16.318Z,24.90
2022-08-08T14:18:54.767Z,24.40
2022-08-08T14:21:39.897Z,24.40
2022-08-08T14:24:30.658Z,24.30
2022-08-08T14:26:59.627Z,24.30
2022-08-08T14:29:31.077Z,24.30
2022-08-08T14:32:09.212Z,24.20
2022-08-08T14:34:45.238Z,24.40
2022-08-08T14:37:18.871Z,24.30
2022-08-08T14:39:53.717Z,24.40
2022-08-08T14:42:31.090Z,24.60
2022-08-08T14:45:02.220Z,24.70
2022-08-08T14:47:36.471Z,24.50
2022-08-08T14:50:16.068Z,24.40
2022-08-08T14:52:57.133Z,24.70
2022-08-08T14:55:42.142Z,24.80
2022-08-08T14:58:16.535Z,24.70
2022-08-08T15:00:49.892Z,24.80
2022-08-08T15:03:19.038Z,24.80
2022-08-08T15:05:54.114Z,24.60
2022-08-08T15:08:34.273Z,24.50
2022-08-08T15:11:11.312Z,24.50
2022-08-08T15:14:00.932Z,24.70
2022-08-08T15:16:34.250Z,24.90
2022-08-08T15:19:05.046Z,25.20
2022-08-08T15:21:42.600Z,25.10
2022-08-08T15:24:14.297Z,24.90
2022-08-08T15:26:52.522Z,24.80
2022-08-08T15:29:24.407Z,24.70
2022-08-08T15:32:17.410Z,24.70
2022-08-08T15:34:43.326Z,24.40
2022-08-08T15:37:14.765Z,24.50
2022-08-08T15:39:45.954Z,24.70
2022-08-08T15:42:32.605Z,24.60
2022-08-08T15:45:02.577Z,24.60
2022-08-08T15:47:32.137Z,24.60
2022-08-08T15:50:01.701Z,24.60
2022-08-08T15:52:32.493Z,24.40
2022-08-08T15:55:02.738Z,24.40
2022-08-08T15:57:35.337Z,24.30
2022-08-08T16:00:26.331Z,24.30
2022-08-08T16:02:59.121Z,24.40
2022-08-08T16:05:35.984Z,24.30
2022-08-08T16:08:20.339Z,24.30
2022-08-08T16:13:21.203Z,24.10
2022-08-08T16:13:43.796Z,24.10
2022-08-08T16:16:18.111Z,24.10
2022-08-08T16:18:57.038Z,24.10
2022-08-08T16:21:30.753Z,24.10
2022-08-08T16:24:03.144Z,24.00
2022-08-08T16:26:35.726Z,24.30
2022-08-08T16:29:08.163Z,24.40
2022-08-08T16:31:42.119Z,24.80
2022-08-08T16:34:19.256Z,25.10
2022-08-08T16:36:50.529Z,25.10
2022-08-08T16:40:01.428Z,24.80
2022-08-08T16:42:17.739Z,24.50
2022-08-08T16:44:54.423Z,24.20
2022-08-08T16:47:41.366Z,24.00
2022-08-08T16:50:14.553Z,23.80
2022-08-08T16:55:23.280Z,23.80
2022-08-08T16:55:54.154Z,23.70
2022-08-08T16:58:26.628Z,23.60
2022-08-08T17:00:58.872Z,23.50
2022-08-08T17:04:01.192Z,23.50
2022-08-08T17:06:37.628Z,23.50
2022-08-08T17:09:06.520Z,23.60
2022-08-08T17:11:47.976Z,23.70
2022-08-08T17:14:19.371Z,23.60
2022-08-08T17:16:57.755Z,23.50
2022-08-08T17:19:28.938Z,23.50
2022-08-08T17:22:01.274Z,23.50
2022-08-08T17:24:31.622Z,23.60
2022-08-08T17:27:03.397Z,24.20
2022-08-08T17:29:36.267Z,24.70
2022-08-08T17:32:08.009Z,24.00
2022-08-08T17:35:51.934Z,23.50
2022-08-08T17:37:27.495Z,23.10
2022-08-08T17:40:06.173Z,23.00
2022-08-08T17:42:47.227Z,22.80
2022-08-08T17:45:23.548Z,22.80
2022-08-08T17:47:54.719Z,22.50
2022-08-08T17:50:25.001Z,22.50
2022-08-08T17:52:57.602Z,22.50
2022-08-08T17:56:05.012Z,22.50
2022-08-08T17:58:17.879Z,22.50
2022-08-08T18:00:56.409Z,22.40
2022-08-08T18:03:26.215Z,22.40
2022-08-08T18:05:55.031Z,22.40
2022-08-08T18:08:37.668Z,22.40
2022-08-08T18:11:15.059Z,22.40
2022-08-08T18:13:47.420Z,22.40
2022-08-08T18:16:23.315Z,22.50
2022-08-08T18:18:56.192Z,22.50
2022-08-08T18:21:59.522Z,22.40
2022-08-08T18:24:19.408Z,22.30
2022-08-08T18:26:54.868Z,22.20
2022-08-08T18:29:29.852Z,22.10
2022-08-08T18:31:59.560Z,21.90
2022-08-08T18:34:28.732Z,21.80
2022-08-08T18:36:57.347Z,21.70
2022-08-08T18:39:28.734Z,21.70
2022-08-08T18:42:03.918Z,21.60
2022-08-08T18:44:36.123Z,21.40
2022-08-08T18:47:05.698Z,21.30
2022-08-08T18:49:40.847Z,21.20
2022-08-08T18:52:24.603Z,21.10
2022-08-08T18:54:59.154Z,20.90
2022-08-08T18:57:31.630Z,20.90
2022-08-08T19:00:15.463Z,20.80
2022-08-08T19:02:48.457Z,20.70
2022-08-08T19:05:31.951Z,20.60
2022-08-08T19:08:25.039Z,20.50
2022-08-08T19:10:58.868Z,20.40
2022-08-08T19:13:53.504Z,20.30
2022-08-08T19:16:19.931Z,20.20
2022-08-08T19:18:57.699Z,20.10
2022-08-08T19:21:32.908Z,20.00
2022-08-08T19:24:05.453Z,20.00
2022-08-08T19:26:35.696Z,20.00
2022-08-08T19:29:06.958Z,19.90
2022-08-08T19:31:37.251Z,19.80
2022-08-08T19:34:30.018Z,19.70
2022-08-08T19:36:58.569Z,19.70
2022-08-08T19:39:35.163Z,19.60
2022-08-08T19:42:06.619Z,19.50
2022-08-08T19:44:46.385Z,19.50
2022-08-08T19:47:24.579Z,19.40
2022-08-08T19:49:59.855Z,19.40
2022-08-08T19:52:35.570Z,19.30
2022-08-08T19:55:09.292Z,19.30
2022-08-08T19:57:38.674Z,19.20
2022-08-08T20:00:29.210Z,19.00
2022-08-08T20:03:01.893Z,19.00
2022-08-08T20:06:14.931Z,18.90
2022-08-08T20:08:33.202Z,18.80
2022-08-08T20:11:02.287Z,18.80
2022-08-08T20:14:31.546Z,18.80
2022-08-08T20:16:20.206Z,18.70
2022-08-08T20:18:53.930Z,18.70
2022-08-08T20:21:25.541Z,18.60
2022-08-08T20:23:57.610Z,18.60
2022-08-08T20:26:30.049Z,18.50
2022-08-08T20:29:03.958Z,18.40
2022-08-08T20:32:02.485Z,18.40
2022-08-08T20:34:30.308Z,18.40
2022-08-08T20:37:02.412Z,18.40
2022-08-08T20:39:39.360Z,18.40
2022-08-08T20:42:20.426Z,18.30
2022-08-08T20:44:53.075Z,18.20
2022-08-08T20:47:23.810Z,18.20
2022-08-08T20:49:57.639Z,18.20
2022-08-08T20:52:28.772Z,18.10
2022-08-08T20:54:57.605Z,18.10
2022-08-08T20:57:29.000Z,18.00
2022-08-08T20:59:59.045Z,18.00
2022-08-08T21:02:28.620Z,17.90
2022-08-08T21:05:00.906Z,17.90
2022-08-08T21:08:07.835Z,17.80
2022-08-08T21:10:21.323Z,17.70
2022-08-08T21:12:56.851Z,17.60
2022-08-08T21:16:04.795Z,17.60
2022-08-08T21:18:14.993Z,17.60
2022-08-08T21:20:50.696Z,17.50
2022-08-08T21:23:19.964Z,17.50
2022-08-08T21:25:54.958Z,17.50
2022-08-08T21:28:33.459Z,17.50
2022-08-08T21:31:22.677Z,17.40
2022-08-08T21:33:52.802Z,17.40
2022-08-08T21:36:28.578Z,17.40
2022-08-08T21:38:58.274Z,17.30
2022-08-08T21:41:38.185Z,17.30
2022-08-08T21:44:12.243Z,17.30
2022-08-08T21:48:20.286Z,17.20
2022-08-08T21:49:31.547Z,17.20
2022-08-08T21:54:27.503Z,17.20
2022-08-08T21:54:54.960Z,17.10
2022-08-08T21:57:30.997Z,17.10
2022-08-08T22:00:14.183Z,17.10
2022-08-08T22:02:44.309Z,17.10
2022-08-08T22:05:14.604Z,17.00
2022-08-08T22:07:48.478Z,17.00
2022-08-08T22:10:32.387Z,17.00
2022-08-08T22:13:17.106Z,17.00
2022-08-08T22:15:59.157Z,16.90
2022-08-08T22:18:35.441Z,16.80
2022-08-08T22:21:13.957Z,16.80
2022-08-08T22:23:51.092Z,16.70
2022-08-08T22:26:29.928Z,16.70
2022-08-08T22:29:13.892Z,16.70
2022-08-08T22:31:59.454Z,16.70
2022-08-08T22:34:31.679Z,16.60
2022-08-08T22:37:00.466Z,16.60
2022-08-08T22:39:45.953Z,16.60
2022-08-08T22:42:24.210Z,16.60
2022-08-08T22:44:57.142Z,16.50
2022-08-08T22:47:37.873Z,16.50
2022-08-08T22:50:26.556Z,16.50
2022-08-08T22:53:00.278Z,16.50
2022-08-08T22:55:59.687Z,16.40
2022-08-08T22:58:33.332Z,16.30
2022-08-08T23:02:00.507Z,16.40
2022-08-08T23:03:55.165Z,16.30
2022-08-08T23:06:25.127Z,16.30
2022-08-08T23:08:55.636Z,16.20
2022-08-08T23:12:18.229Z,16.10
2022-08-08T23:14:18.909Z,16.20
2022-08-08T23:16:58.000Z,16.10
2022-08-08T23:19:30.958Z,16.10
2022-08-08T23:22:04.336Z,16.10
2022-08-08T23:24:36.189Z,16.10
2022-08-08T23:27:07.970Z,16.10
2022-08-08T23:29:37.221Z,16.00
2022-08-08T23:32:06.932Z,16.00
2022-08-08T23:34:40.272Z,16.10
2022-08-08T23:37:54.173Z,16.10
2022-08-08T23:40:21.980Z,16.00
2022-08-08T23:42:52.239Z,16.00
2022-08-08T23:49:01.624Z,15.90
2022-08-08T23:49:02.104Z,15.90
2022-08-08T23:50:58.608Z,15.80
2022-08-08T23:54:05.003Z,15.80
2022-08-08T23:56:32.077Z,15.70
2022-08-08T23:59:03.977Z,15.70
